Time;durP1;ratioP1;P1;durP2;ratioP2;P2;SDS_P1;SDS_P2;PMS_P1;PMS_P2;Temp;Humidity;BMP_temperature;BMP_pressure;BME280_temperature;BME280_humidity;BME280_pressure;Samples;Min_cycle;Max_cycle;Signal;HPM_P1;HPM_P2
2021/12/16 00:02:27;;;;;;;343.17;316.90;;;9.10;99.90;;;;;;4954530;28;20199;-80
2021/12/16 00:07:48;;;;;;;344.83;318.57;;;9.10;99.90;;;;;;4997149;28;20226;-81
2021/12/16 00:10:27;;;;;;;344.10;317.17;;;9.10;99.90;;;;;;4964899;28;20273;-82
2021/12/16 00:32:20;;;;;;;344.67;317.27;;;9.10;99.90;;;;;;4994627;28;20727;-82
2021/12/16 00:34:48;;;;;;;345.70;319.13;;;9.10;99.90;;;;;;4978024;28;20585;-81
2021/12/16 00:37:15;;;;;;;348.70;321.80;;;9.10;99.90;;;;;;4985607;28;20287;-81
2021/12/16 00:39:41;;;;;;;343.57;317.27;;;9.20;99.90;;;;;;4994785;28;20198;-81
2021/12/16 00:42:16;;;;;;;351.17;324.40;;;9.10;99.90;;;;;;4996637;28;20195;-81
2021/12/16 00:49:44;;;;;;;346.80;319.00;;;9.20;99.90;;;;;;5016223;28;20754;-83
2021/12/16 00:55:08;;;;;;;352.63;325.93;;;9.20;99.90;;;;;;5034931;28;20198;-82
2021/12/16 00:57:34;;;;;;;353.87;326.67;;;9.20;99.90;;;;;;5018402;28;20179;-81
2021/12/16 01:00:03;;;;;;;354.93;326.70;;;9.20;99.90;;;;;;4999755;28;20687;-81
2021/12/16 01:02:52;;;;;;;352.70;325.10;;;9.20;99.90;;;;;;5016755;28;20187;-82
2021/12/16 01:38:55;;;;;;;332.90;307.43;;;9.40;99.90;;;;;;5019490;28;20198;-80
2021/12/16 01:46:38;;;;;;;336.10;310.33;;;9.50;99.90;;;;;;5029261;28;20237;-78
2021/12/16 01:51:53;;;;;;;330.80;303.97;;;9.50;99.90;;;;;;5027624;28;20244;-79
2021/12/16 01:57:00;;;;;;;328.57;303.73;;;9.50;99.90;;;;;;5028368;28;20672;-79
2021/12/16 01:59:34;;;;;;;332.27;306.27;;;9.50;99.90;;;;;;5029173;28;20194;-78
2021/12/16 02:02:11;;;;;;;328.00;302.23;;;9.60;99.90;;;;;;5004206;28;20218;-78
2021/12/16 02:04:41;;;;;;;326.10;301.00;;;9.60;99.90;;;;;;4995689;28;20186;-80
2021/12/16 02:07:25;;;;;;;322.47;298.00;;;9.60;99.90;;;;;;4996030;28;20687;-79
2021/12/16 02:09:50;;;;;;;327.10;302.03;;;9.60;99.90;;;;;;4975752;28;20301;-79
2021/12/16 02:29:06;;;;;;;317.97;293.40;;;9.50;99.90;;;;;;4937757;29;20224;-79
2021/12/16 02:31:54;;;;;;;319.03;295.03;;;9.50;99.90;;;;;;4917830;29;20247;-80
2021/12/16 02:36:53;;;;;;;315.07;290.97;;;9.40;99.90;;;;;;5028988;28;20535;-79
2021/12/16 02:39:28;;;;;;;319.73;294.70;;;9.40;99.90;;;;;;4992194;28;20198;-79
2021/12/16 02:42:12;;;;;;;319.60;295.43;;;9.40;99.90;;;;;;5004929;28;20181;-79
2021/12/16 02:48:28;;;;;;;316.00;292.00;;;9.40;99.90;;;;;;5009910;28;20308;-79
2021/12/16 02:50:11;;;;;;;319.03;294.70;;;9.40;99.90;;;;;;5012625;28;20225;-81
2021/12/16 02:52:37;;;;;;;317.73;293.80;;;9.30;99.90;;;;;;4993288;28;20195;-80
2021/12/16 02:55:05;;;;;;;318.10;293.70;;;9.30;99.90;;;;;;5009273;28;20217;-80
2021/12/16 02:57:36;;;;;;;320.10;294.67;;;9.30;99.90;;;;;;5028595;28;20206;-80
2021/12/16 03:00:11;;;;;;;317.30;293.27;;;9.30;99.90;;;;;;4993430;28;20630;-79
2021/12/16 03:02:37;;;;;;;316.97;293.63;;;9.30;99.90;;;;;;5026683;28;20170;-79
2021/12/16 03:05:03;;;;;;;317.20;293.30;;;9.30;99.90;;;;;;4994006;28;20269;-80
2021/12/16 03:07:29;;;;;;;312.73;289.43;;;9.30;99.90;;;;;;4993220;28;20206;-80
2021/12/16 03:12:56;;;;;;;309.20;286.30;;;9.30;99.90;;;;;;5012328;28;20201;-79
2021/12/16 03:15:54;;;;;;;310.73;287.93;;;9.30;99.90;;;;;;5018943;28;20274;-80
2021/12/16 03:20:55;;;;;;;305.80;283.37;;;9.40;99.90;;;;;;5027453;28;20660;-80
2021/12/16 03:33:53;;;;;;;295.07;272.87;;;9.40;99.90;;;;;;5027147;28;20179;-80
2021/12/16 03:36:28;;;;;;;292.30;271.47;;;9.40;99.90;;;;;;5012014;28;20230;-80
2021/12/16 03:39:07;;;;;;;289.00;268.17;;;9.40;99.90;;;;;;4993619;28;20187;-78
2021/12/16 03:41:34;;;;;;;284.13;263.63;;;9.50;99.90;;;;;;5002883;28;20241;-80
2021/12/16 03:44:00;;;;;;;276.87;257.00;;;9.40;99.90;;;;;;5007977;28;21015;-79
2021/12/16 03:46:33;;;;;;;269.10;249.60;;;9.50;99.90;;;;;;5009305;28;20191;-80
2021/12/16 03:49:09;;;;;;;266.80;247.23;;;9.40;99.90;;;;;;5008703;28;20203;-79
2021/12/16 03:51:37;;;;;;;257.23;238.20;;;9.50;99.90;;;;;;5026792;28;20230;-79
2021/12/16 03:54:09;;;;;;;254.50;236.53;;;9.50;99.90;;;;;;5026242;28;20656;-80
2021/12/16 03:56:36;;;;;;;251.13;232.93;;;9.50;99.90;;;;;;5008053;28;20666;-81
2021/12/16 03:59:03;;;;;;;240.60;223.77;;;9.50;99.90;;;;;;5006853;28;20186;-79
2021/12/16 04:01:30;;;;;;;238.13;220.93;;;9.50;99.90;;;;;;5009650;28;20190;-80
2021/12/16 04:03:56;;;;;;;238.90;221.27;;;9.50;99.90;;;;;;4993583;28;20211;-79
2021/12/16 04:06:24;;;;;;;233.67;216.43;;;9.50;99.90;;;;;;4993555;28;20198;-79
2021/12/16 04:08:52;;;;;;;237.33;220.43;;;9.50;99.90;;;;;;4993008;28;20194;-79
2021/12/16 04:11:25;;;;;;;237.23;219.87;;;9.60;99.90;;;;;;5018270;28;20229;-80
2021/12/16 04:13:56;;;;;;;230.47;213.73;;;9.50;99.90;;;;;;5023156;28;20167;-81
2021/12/16 04:16:30;;;;;;;228.10;211.80;;;9.50;99.90;;;;;;5002287;28;20672;-78
2021/12/16 04:18:59;;;;;;;224.63;207.60;;;9.50;99.90;;;;;;5027517;28;20206;-80
2021/12/16 04:21:27;;;;;;;224.17;207.67;;;9.50;99.90;;;;;;5007614;28;20680;-80
2021/12/16 04:23:56;;;;;;;226.10;209.33;;;9.50;99.90;;;;;;4977490;28;20751;-80
2021/12/16 04:26:23;;;;;;;225.53;209.17;;;9.50;99.90;;;;;;4994128;28;20182;-80
2021/12/16 04:28:49;;;;;;;214.53;198.57;;;9.50;99.90;;;;;;4993880;28;20182;-79
2021/12/16 04:31:15;;;;;;;223.50;207.43;;;9.50;99.90;;;;;;5008987;28;20226;-80
2021/12/16 04:33:42;;;;;;;220.97;205.23;;;9.50;99.90;;;;;;5010203;28;20181;-79
2021/12/16 04:36:11;;;;;;;221.37;205.63;;;9.50;99.90;;;;;;5009250;28;20575;-79
2021/12/16 04:38:39;;;;;;;221.73;205.47;;;9.50;99.90;;;;;;5028235;28;20194;-79
2021/12/16 04:41:11;;;;;;;223.27;206.53;;;9.50;99.90;;;;;;5021289;28;20224;-80
2021/12/16 04:43:40;;;;;;;215.20;200.00;;;9.50;99.90;;;;;;5010014;28;20265;-80
2021/12/16 04:46:12;;;;;;;208.53;193.60;;;9.60;99.90;;;;;;5018214;28;20664;-80
2021/12/16 04:48:40;;;;;;;203.40;188.53;;;9.50;99.90;;;;;;5016516;28;20198;-78
2021/12/16 04:51:08;;;;;;;206.20;190.40;;;9.60;99.90;;;;;;4994965;28;20231;-81
2021/12/16 04:53:34;;;;;;;214.17;198.27;;;9.60;99.90;;;;;;4997427;28;20245;-82
2021/12/16 04:56:00;;;;;;;216.87;200.67;;;9.50;99.90;;;;;;4980084;28;20687;-81
2021/12/16 04:58:27;;;;;;;212.77;197.27;;;9.50;99.90;;;;;;4994927;28;20183;-82
2021/12/16 05:00:53;;;;;;;213.57;198.53;;;9.60;99.90;;;;;;5012156;28;20191;-80
2021/12/16 05:03:19;;;;;;;208.40;193.47;;;9.60;99.90;;;;;;5012466;28;20253;-82
2021/12/16 05:05:45;;;;;;;200.10;185.93;;;9.60;99.90;;;;;;4979513;28;20870;-82
2021/12/16 05:08:11;;;;;;;197.13;183.23;;;9.60;99.90;;;;;;4995980;28;20195;-81
2021/12/16 05:10:37;;;;;;;208.57;193.00;;;9.60;99.90;;;;;;5011329;28;20234;-81
2021/12/16 05:13:05;;;;;;;211.77;197.47;;;9.70;99.90;;;;;;5003536;28;20187;-82
2021/12/16 05:15:34;;;;;;;206.30;190.80;;;9.70;99.90;;;;;;5010425;28;20680;-80
2021/12/16 05:18:04;;;;;;;212.37;197.33;;;9.70;99.90;;;;;;5012340;28;20175;-81
2021/12/16 05:20:38;;;;;;;213.17;197.83;;;9.60;99.90;;;;;;5011972;28;20207;-81
2021/12/16 05:29:03;;;;;;;209.27;194.67;;;9.60;99.90;;;;;;5001751;28;20198;-81
2021/12/16 05:31:29;;;;;;;213.57;198.70;;;9.60;99.90;;;;;;4998155;28;20294;-80
2021/12/16 05:33:57;;;;;;;198.87;185.30;;;9.60;99.90;;;;;;5033680;28;20234;-82
2021/12/16 05:36:23;;;;;;;202.57;187.60;;;9.60;99.90;;;;;;5034344;28;20187;-80
2021/12/16 05:38:49;;;;;;;198.97;184.80;;;9.60;99.90;;;;;;5015944;28;20563;-82
2021/12/16 05:41:18;;;;;;;198.57;184.53;;;9.70;99.90;;;;;;5000231;28;20313;-80
2021/12/16 05:43:45;;;;;;;197.10;183.03;;;9.70;99.90;;;;;;5014893;28;20183;-81
2021/12/16 05:46:11;;;;;;;199.30;184.03;;;9.70;99.90;;;;;;4997845;28;20194;-81
2021/12/16 05:48:41;;;;;;;192.17;177.73;;;9.70;99.90;;;;;;5007228;28;20191;-80
2021/12/16 05:51:16;;;;;;;192.30;178.63;;;9.70;99.90;;;;;;5015292;28;20719;-80
2021/12/16 05:53:42;;;;;;;195.33;181.33;;;9.70;99.90;;;;;;5013451;28;20181;-81
2021/12/16 05:56:08;;;;;;;192.87;179.10;;;9.70;99.90;;;;;;5000337;28;20187;-81
2021/12/16 05:58:36;;;;;;;193.63;180.33;;;9.80;99.90;;;;;;5032750;28;20202;-80
2021/12/16 06:01:09;;;;;;;188.90;175.63;;;9.80;99.90;;;;;;4998027;28;20210;-80
2021/12/16 06:03:36;;;;;;;193.90;179.50;;;9.80;99.90;;;;;;5024638;28;20276;-81
2021/12/16 06:06:02;;;;;;;191.20;177.60;;;9.80;99.90;;;;;;5029774;28;20201;-81
2021/12/16 06:08:28;;;;;;;189.10;175.67;;;9.70;99.90;;;;;;5012354;28;20195;-80
2021/12/16 06:13:29;;;;;;;189.87;176.47;;;9.70;99.90;;;;;;5032192;28;20734;-81
2021/12/16 06:26:51;;;;;;;202.83;188.33;;;9.60;99.90;;;;;;5003133;28;20226;-81
2021/12/16 06:29:16;;;;;;;206.13;191.70;;;9.50;99.90;;;;;;5033103;28;20183;-81
2021/12/16 06:31:42;;;;;;;210.10;194.43;;;9.50;99.90;;;;;;4997994;28;20305;-81
2021/12/16 06:34:09;;;;;;;225.43;209.97;;;9.50;99.90;;;;;;5014828;28;20302;-82
2021/12/16 06:36:34;;;;;;;235.37;219.47;;;9.50;99.90;;;;;;4974762;28;20799;-81
2021/12/16 06:39:00;;;;;;;244.00;227.47;;;9.50;99.90;;;;;;4997128;28;20215;-82
2021/12/16 06:41:28;;;;;;;248.77;231.40;;;9.40;99.90;;;;;;4981510;28;20274;-82
2021/12/16 06:43:56;;;;;;;257.90;240.80;;;9.40;99.90;;;;;;5006345;28;20178;-81
2021/12/16 06:46:31;;;;;;;258.73;241.23;;;9.40;99.90;;;;;;5010145;28;20191;-81
2021/12/16 06:48:59;;;;;;;267.03;248.77;;;9.30;99.90;;;;;;4988950;28;22325;-81
2021/12/16 06:51:37;;;;;;;275.27;256.83;;;9.30;99.90;;;;;;4979433;28;20923;-81
2021/12/16 06:54:06;;;;;;;281.83;262.77;;;9.30;99.90;;;;;;5008599;28;20737;-81
2021/12/16 06:56:51;;;;;;;290.27;270.73;;;9.20;99.90;;;;;;5011040;28;20191;-80
2021/12/16 06:59:28;;;;;;;285.27;266.53;;;9.30;99.90;;;;;;4995603;28;20202;-83
2021/12/16 07:04:33;;;;;;;291.93;272.57;;;9.30;99.90;;;;;;5014663;28;20201;-82
2021/12/16 07:06:59;;;;;;;297.27;277.57;;;9.20;99.90;;;;;;5012741;28;20601;-81
2021/12/16 07:09:26;;;;;;;300.20;279.73;;;9.20;99.90;;;;;;5010554;28;20241;-81
2021/12/16 07:11:56;;;;;;;295.73;275.90;;;9.20;99.90;;;;;;5011544;28;20272;-79
2021/12/16 07:14:35;;;;;;;296.30;276.23;;;9.20;99.90;;;;;;5030048;28;20179;-81
2021/12/16 07:17:03;;;;;;;309.33;288.33;;;9.20;99.90;;;;;;5012554;28;20179;-80
2021/12/16 07:19:28;;;;;;;305.93;285.00;;;9.20;99.90;;;;;;5022597;28;20230;-82
2021/12/16 07:21:54;;;;;;;300.03;279.70;;;9.20;99.90;;;;;;5014740;28;20245;-82
2021/12/16 07:24:20;;;;;;;300.97;280.37;;;9.20;99.90;;;;;;4981518;28;20186;-80
2021/12/16 07:26:46;;;;;;;307.13;286.07;;;9.20;99.90;;;;;;4998719;28;20178;-82
2021/12/16 07:29:12;;;;;;;305.07;284.40;;;9.10;99.90;;;;;;4982024;28;20218;-81
2021/12/16 07:31:39;;;;;;;306.80;284.67;;;9.10;99.90;;;;;;4995471;28;20246;-81
2021/12/16 07:34:09;;;;;;;303.73;283.07;;;9.10;99.90;;;;;;5010185;28;20219;-82
2021/12/16 07:36:37;;;;;;;303.90;282.80;;;9.20;99.90;;;;;;5012959;28;20682;-82
2021/12/16 07:39:07;;;;;;;308.50;286.70;;;9.20;99.90;;;;;;5032732;28;20191;-81
2021/12/16 07:41:34;;;;;;;307.50;286.67;;;9.20;99.90;;;;;;5031978;28;20191;-82
2021/12/16 07:44:11;;;;;;;312.43;290.67;;;9.20;99.90;;;;;;5012347;28;20190;-82
2021/12/16 07:46:37;;;;;;;307.73;286.43;;;9.20;99.90;;;;;;5023304;28;20209;-81
2021/12/16 07:49:05;;;;;;;311.03;289.20;;;9.20;99.90;;;;;;5029320;28;20214;-81
2021/12/16 07:51:31;;;;;;;312.30;290.80;;;9.20;99.90;;;;;;5008641;28;20230;-80
2021/12/16 07:53:57;;;;;;;313.70;291.83;;;9.20;99.90;;;;;;5012500;28;20195;-80
2021/12/16 07:56:23;;;;;;;309.70;288.60;;;9.20;99.90;;;;;;4995361;28;20228;-80
2021/12/16 07:58:48;;;;;;;314.33;292.37;;;9.20;99.90;;;;;;4993895;28;20175;-82
2021/12/16 08:01:15;;;;;;;314.40;292.77;;;9.20;99.90;;;;;;5011747;28;20827;-81
2021/12/16 08:03:43;;;;;;;315.40;293.10;;;9.20;99.90;;;;;;5012875;28;20548;-82
2021/12/16 08:06:12;;;;;;;313.70;291.30;;;9.20;99.90;;;;;;4989235;28;20234;-81
2021/12/16 08:08:38;;;;;;;315.20;293.63;;;9.30;99.90;;;;;;5013797;28;20191;-80
2021/12/16 08:11:05;;;;;;;314.37;292.93;;;9.20;99.90;;;;;;5029555;28;20234;-81
2021/12/16 08:13:30;;;;;;;317.27;295.20;;;9.20;99.90;;;;;;5010827;28;20182;-82
2021/12/16 08:15:56;;;;;;;316.73;294.27;;;9.30;99.90;;;;;;4980293;28;20231;-81
2021/12/16 08:18:22;;;;;;;307.90;285.63;;;9.40;99.90;;;;;;5013631;28;20191;-81
2021/12/16 08:20:48;;;;;;;290.30;269.13;;;9.90;99.90;;;;;;4980676;28;20210;-81
2021/12/16 08:23:13;;;;;;;285.20;264.67;;;10.70;99.90;;;;;;5005037;28;20186;-81
2021/12/16 08:25:39;;;;;;;271.03;250.73;;;11.80;99.90;;;;;;5030391;28;20194;-82
2021/12/16 08:28:06;;;;;;;274.13;254.43;;;12.60;99.90;;;;;;4996359;28;20210;-82
2021/12/16 08:30:36;;;;;;;276.13;256.70;;;12.70;99.90;;;;;;4990946;28;20206;-81
2021/12/16 08:33:06;;;;;;;272.60;253.13;;;12.20;99.90;;;;;;5029767;28;20206;-82
2021/12/16 08:35:32;;;;;;;287.23;266.90;;;11.60;99.90;;;;;;5009325;28;20243;-80
2021/12/16 08:37:59;;;;;;;289.17;269.03;;;11.10;99.90;;;;;;5014138;28;20183;-82
2021/12/16 08:40:25;;;;;;;288.53;267.67;;;10.70;99.90;;;;;;5020939;28;20199;-81
2021/12/16 08:42:52;;;;;;;288.33;268.47;;;10.40;99.90;;;;;;4993824;28;20186;-81
2021/12/16 08:45:23;;;;;;;284.43;264.97;;;10.20;99.90;;;;;;4988854;28;20199;-81
2021/12/16 08:47:49;;;;;;;284.07;264.00;;;10.00;99.90;;;;;;5011357;28;20241;-82
2021/12/16 08:50:18;;;;;;;289.27;268.83;;;9.90;99.90;;;;;;4977275;28;20591;-81
2021/12/16 08:52:44;;;;;;;295.03;275.07;;;9.80;99.90;;;;;;5029441;28;20249;-82
2021/12/16 08:55:12;;;;;;;287.40;267.77;;;9.70;99.90;;;;;;5010902;28;20202;-81
2021/12/16 08:57:38;;;;;;;286.87;266.20;;;9.70;99.90;;;;;;5012782;28;20757;-82
2021/12/16 09:00:08;;;;;;;283.63;262.53;;;9.70;99.90;;;;;;4974340;28;20207;-80
2021/12/16 09:02:34;;;;;;;282.40;262.23;;;9.70;99.90;;;;;;5007747;28;20524;-81
2021/12/16 09:05:00;;;;;;;286.57;267.37;;;9.70;99.90;;;;;;5015783;28;20222;-81
2021/12/16 09:07:26;;;;;;;279.47;260.10;;;9.70;99.90;;;;;;4998287;28;20289;-82
2021/12/16 09:09:52;;;;;;;279.53;259.67;;;9.70;99.90;;;;;;5016399;28;20214;-82
2021/12/16 09:14:59;;;;;;;276.97;257.47;;;9.70;99.90;;;;;;5034574;28;20218;-81
2021/12/16 09:17:26;;;;;;;286.83;267.07;;;9.70;99.90;;;;;;5009058;28;20287;-81
2021/12/16 09:19:53;;;;;;;275.77;255.73;;;9.70;99.90;;;;;;5000082;28;20246;-80
2021/12/16 09:22:24;;;;;;;280.20;259.97;;;9.70;99.90;;;;;;5015115;28;20198;-81
2021/12/16 09:24:51;;;;;;;275.83;256.10;;;9.70;99.90;;;;;;5013847;28;20247;-82
2021/12/16 09:27:17;;;;;;;278.83;258.73;;;9.70;99.90;;;;;;5013918;28;20272;-81
2021/12/16 09:29:45;;;;;;;283.23;263.07;;;9.80;99.90;;;;;;5014004;28;20195;-81
2021/12/16 09:32:11;;;;;;;276.83;257.17;;;9.70;99.90;;;;;;5015488;28;20218;-81
2021/12/16 09:34:39;;;;;;;259.70;240.80;;;9.80;99.90;;;;;;5016313;28;20297;-82
2021/12/16 09:37:05;;;;;;;266.67;246.90;;;9.80;99.90;;;;;;5033193;28;20247;-81
2021/12/16 09:39:32;;;;;;;267.43;248.80;;;9.90;99.90;;;;;;5014814;28;20222;-81
2021/12/16 09:41:58;;;;;;;264.83;246.23;;;9.90;99.90;;;;;;4999674;28;20203;-81
2021/12/16 09:44:26;;;;;;;270.07;251.13;;;9.90;99.90;;;;;;4981199;28;20197;-80
2021/12/16 09:46:55;;;;;;;249.13;230.77;;;9.90;99.90;;;;;;5013940;28;20206;-80
2021/12/16 09:49:22;;;;;;;254.30;236.33;;;9.90;99.90;;;;;;5005492;28;20667;-81
2021/12/16 09:51:52;;;;;;;239.67;222.67;;;10.00;99.90;;;;;;5013028;28;20971;-81
2021/12/16 09:54:32;;;;;;;241.73;223.90;;;10.00;99.90;;;;;;5031678;28;20217;-80
2021/12/16 09:56:59;;;;;;;242.50;224.77;;;10.00;99.90;;;;;;5004170;28;20175;-80
2021/12/16 09:59:27;;;;;;;224.40;208.40;;;10.00;99.90;;;;;;5012510;28;20194;-81
2021/12/16 10:01:56;;;;;;;222.53;206.03;;;10.00;99.90;;;;;;5013068;28;20185;-81
2021/12/16 10:04:27;;;;;;;217.90;200.90;;;10.00;99.90;;;;;;5013393;28;20258;-80
2021/12/16 10:06:54;;;;;;;218.97;203.03;;;10.10;99.90;;;;;;4996988;28;20270;-81
2021/12/16 10:09:20;;;;;;;214.33;198.17;;;10.10;99.90;;;;;;4994827;28;20190;-80
2021/12/16 10:11:48;;;;;;;215.53;199.80;;;10.10;99.90;;;;;;5011493;28;20604;-81
2021/12/16 10:14:31;;;;;;;220.23;204.73;;;10.10;99.90;;;;;;5004523;28;20175;-82
2021/12/16 10:19:44;;;;;;;210.17;194.30;;;10.10;99.90;;;;;;5014143;28;20210;-81
2021/12/16 10:22:25;;;;;;;205.80;190.17;;;10.10;99.90;;;;;;4997164;28;20317;-80
2021/12/16 10:24:57;;;;;;;213.80;198.70;;;10.10;99.90;;;;;;5010649;28;20183;-81
2021/12/16 10:27:26;;;;;;;206.60;190.87;;;10.10;99.90;;;;;;5005248;28;20281;-81
2021/12/16 10:30:05;;;;;;;194.20;179.17;;;10.10;99.90;;;;;;5029723;28;20214;-80
2021/12/16 10:32:35;;;;;;;200.10;185.07;;;10.20;99.90;;;;;;5031197;28;20206;-81
2021/12/16 10:35:07;;;;;;;199.00;184.47;;;10.20;99.90;;;;;;5011454;28;20772;-81
2021/12/16 10:37:36;;;;;;;197.07;182.77;;;10.20;99.90;;;;;;5021369;28;20640;-80
2021/12/16 10:40:40;;;;;;;203.27;188.37;;;10.20;99.90;;;;;;5013622;28;20179;-81
2021/12/16 10:43:10;;;;;;;196.40;182.00;;;10.20;99.90;;;;;;5011082;28;20581;-81
2021/12/16 10:45:48;;;;;;;197.90;181.60;;;10.20;99.90;;;;;;5030268;28;20194;-80
2021/12/16 10:48:19;;;;;;;187.83;173.63;;;10.20;99.90;;;;;;5030422;28;20190;-81
2021/12/16 10:51:29;;;;;;;189.57;175.03;;;10.20;99.90;;;;;;5027253;28;20318;-80
2021/12/16 10:53:59;;;;;;;185.17;171.60;;;10.30;99.90;;;;;;4932348;29;20193;-81
2021/12/16 10:56:57;;;;;;;191.23;177.23;;;10.30;99.90;;;;;;5001199;28;20348;-81
2021/12/16 10:59:28;;;;;;;189.37;176.43;;;10.40;99.90;;;;;;5015922;28;20198;-81
2021/12/16 11:02:05;;;;;;;173.93;161.67;;;10.40;99.90;;;;;;5029135;28;20214;-82
2021/12/16 11:04:33;;;;;;;178.30;164.80;;;10.40;99.90;;;;;;5027742;28;20222;-80
2021/12/16 11:07:05;;;;;;;180.90;167.57;;;10.50;99.90;;;;;;5011475;28;20206;-80
2021/12/16 11:09:42;;;;;;;183.80;170.17;;;10.50;99.90;;;;;;5009752;28;20290;-81
2021/12/16 11:12:25;;;;;;;177.60;164.50;;;10.50;99.90;;;;;;5027577;28;20201;-81
2021/12/16 11:14:55;;;;;;;178.57;165.47;;;10.50;99.90;;;;;;5010751;28;20183;-80
2021/12/16 11:17:24;;;;;;;173.50;161.40;;;10.60;99.90;;;;;;5026496;28;20313;-81
2021/12/16 11:19:55;;;;;;;175.57;161.70;;;10.60;99.90;;;;;;5029174;28;20565;-81
2021/12/16 11:22:29;;;;;;;172.40;159.23;;;10.50;99.90;;;;;;5029531;28;20220;-81
2021/12/16 11:24:55;;;;;;;169.10;157.03;;;10.60;99.90;;;;;;5028655;28;20267;-81
2021/12/16 11:27:20;;;;;;;168.60;157.03;;;10.60;99.90;;;;;;5012758;28;20684;-80
2021/12/16 11:29:46;;;;;;;167.00;155.60;;;10.60;99.90;;;;;;5011442;28;20186;-81
2021/12/16 11:32:40;;;;;;;168.53;156.00;;;10.60;99.90;;;;;;5011355;28;20234;-81
2021/12/16 11:35:29;;;;;;;166.83;155.30;;;10.70;99.90;;;;;;5005393;28;20606;-81
2021/12/16 11:37:57;;;;;;;167.23;156.00;;;10.70;99.90;;;;;;5004255;28;20818;-80
2021/12/16 11:40:25;;;;;;;168.20;156.60;;;10.70;99.90;;;;;;5028459;28;20585;-81
2021/12/16 11:43:17;;;;;;;163.10;152.40;;;10.80;99.90;;;;;;5004098;28;20571;-81
2021/12/16 11:45:43;;;;;;;159.13;148.37;;;10.80;99.90;;;;;;5006987;28;20275;-81
2021/12/16 11:48:25;;;;;;;159.63;149.27;;;10.80;99.90;;;;;;4994360;28;20623;-80
2021/12/16 11:51:04;;;;;;;160.53;150.30;;;10.80;99.90;;;;;;5013454;28;20234;-82
2021/12/16 11:53:45;;;;;;;160.93;150.17;;;10.90;99.90;;;;;;5028953;28;20610;-81
2021/12/16 11:56:12;;;;;;;162.20;151.30;;;10.90;99.90;;;;;;5010814;28;20187;-81
2021/12/16 11:58:41;;;;;;;162.47;152.07;;;10.90;99.90;;;;;;4989146;28;20215;-81
2021/12/16 12:01:35;;;;;;;159.43;149.13;;;10.90;99.90;;;;;;5009564;28;20195;-81
2021/12/16 12:04:04;;;;;;;159.43;148.63;;;10.90;99.90;;;;;;5007425;28;20247;-81
2021/12/16 12:06:31;;;;;;;158.50;147.90;;;10.90;99.90;;;;;;5007096;28;20245;-81
2021/12/16 12:09:00;;;;;;;158.47;147.13;;;10.90;99.90;;;;;;4993696;28;20194;-81
2021/12/16 12:11:33;;;;;;;157.60;147.00;;;10.90;99.90;;;;;;5028876;28;20533;-80
2021/12/16 12:14:09;;;;;;;158.53;147.77;;;10.90;99.90;;;;;;5019084;28;20195;-81
2021/12/16 12:16:37;;;;;;;156.80;146.20;;;10.90;99.90;;;;;;5028550;28;20178;-81
2021/12/16 12:19:21;;;;;;;154.90;144.47;;;10.90;99.90;;;;;;5026723;28;20548;-82
2021/12/16 12:22:00;;;;;;;155.23;145.47;;;10.90;99.90;;;;;;5008247;28;20195;-81
2021/12/16 12:24:38;;;;;;;157.33;147.17;;;10.90;99.90;;;;;;5007011;28;20269;-80
2021/12/16 12:27:09;;;;;;;157.67;147.63;;;10.90;99.90;;;;;;5006249;28;20543;-82
2021/12/16 12:29:41;;;;;;;155.90;145.83;;;11.00;99.90;;;;;;5018691;28;20245;-80
2021/12/16 12:32:13;;;;;;;155.80;145.53;;;11.00;99.90;;;;;;5003107;28;20210;-80
2021/12/16 12:34:44;;;;;;;156.20;146.20;;;11.00;99.90;;;;;;5011252;28;20202;-79
2021/12/16 12:37:13;;;;;;;155.20;145.17;;;11.00;99.90;;;;;;5014349;28;20190;-80
2021/12/16 12:39:46;;;;;;;149.70;140.37;;;11.00;99.90;;;;;;5015574;28;20187;-81
2021/12/16 12:42:14;;;;;;;156.47;146.53;;;11.00;99.90;;;;;;5013096;28;20198;-81
2021/12/16 12:44:41;;;;;;;152.77;142.90;;;11.00;99.90;;;;;;5024975;28;20191;-81
2021/12/16 12:47:11;;;;;;;152.57;143.23;;;11.00;99.90;;;;;;5013445;28;20217;-81
2021/12/16 12:49:38;;;;;;;151.43;142.23;;;11.00;99.90;;;;;;5030883;28;20317;-81
2021/12/16 12:52:17;;;;;;;149.73;140.60;;;11.00;99.90;;;;;;4990660;28;20246;-83
2021/12/16 12:55:05;;;;;;;152.47;143.43;;;11.00;99.90;;;;;;4994795;28;20210;-81
2021/12/16 12:57:34;;;;;;;147.97;139.47;;;11.00;99.90;;;;;;4999706;28;20196;-80
2021/12/16 13:00:03;;;;;;;143.00;134.30;;;11.00;99.90;;;;;;4995228;28;20195;-80
2021/12/16 13:02:34;;;;;;;144.63;136.03;;;11.00;99.90;;;;;;5003463;28;20298;-80
2021/12/16 13:05:09;;;;;;;135.50;127.63;;;11.00;99.90;;;;;;4994557;28;20211;-80
2021/12/16 13:07:39;;;;;;;126.03;118.67;;;11.10;99.90;;;;;;5012433;28;20235;-81
2021/12/16 13:10:18;;;;;;;124.47;117.17;;;11.10;99.90;;;;;;4994950;28;20223;-81
2021/12/16 13:12:53;;;;;;;120.23;113.27;;;11.10;99.90;;;;;;5012355;28;20254;-80
2021/12/16 13:15:28;;;;;;;122.67;115.87;;;11.10;99.90;;;;;;5012542;28;20615;-80
2021/12/16 13:23:34;;;;;;;120.30;113.53;;;11.10;99.90;;;;;;5014642;28;20253;-81
2021/12/16 13:28:41;;;;;;;117.47;110.63;;;11.10;99.90;;;;;;5013037;28;20731;-81
2021/12/16 13:31:27;;;;;;;112.60;106.63;;;11.10;99.90;;;;;;4973563;28;20215;-81
2021/12/16 13:33:57;;;;;;;110.23;104.33;;;11.20;99.90;;;;;;5009701;28;20920;-82
2021/12/16 13:36:46;;;;;;;107.13;101.33;;;11.20;99.90;;;;;;4994559;28;20184;-80
2021/12/16 13:39:23;;;;;;;110.67;104.23;;;11.20;99.90;;;;;;5012265;28;20227;-82
2021/12/16 13:41:55;;;;;;;110.03;103.93;;;11.20;99.90;;;;;;5012847;28;20183;-82
2021/12/16 13:44:39;;;;;;;107.80;101.60;;;11.20;99.90;;;;;;4992607;28;20189;-81
2021/12/16 13:47:37;;;;;;;106.00;100.10;;;11.20;99.90;;;;;;5009633;28;20191;-82
2021/12/16 14:07:01;;;;;;;98.50;93.10;;;11.20;99.90;;;;;;4994267;28;20201;-80
2021/12/16 14:09:33;;;;;;;70.72;66.35;;;11.20;99.90;;;;;;5010310;28;21004;-82
2021/12/16 14:17:51;;;;;;;58.67;54.97;;;11.20;99.90;;;;;;5012701;28;20267;-80
2021/12/16 14:24:08;;;;;;;61.17;57.07;;;11.20;99.90;;;;;;5030310;28;20737;-82
2021/12/16 14:26:43;;;;;;;71.63;67.37;;;11.10;99.90;;;;;;5030120;28;21046;-81
2021/12/16 14:37:47;;;;;;;64.63;60.33;;;11.10;99.90;;;;;;5016612;28;20187;-81
2021/12/16 14:40:38;;;;;;;75.57;71.27;;;11.00;99.90;;;;;;5010926;28;20194;-80
2021/12/16 14:43:15;;;;;;;86.23;80.83;;;11.00;99.90;;;;;;5014231;28;20198;-81
2021/12/16 14:45:46;;;;;;;87.17;82.27;;;11.00;99.90;;;;;;4984408;28;20187;-82
2021/12/16 14:48:26;;;;;;;91.07;84.73;;;11.00;99.90;;;;;;5010929;28;20284;-81
2021/12/16 14:50:59;;;;;;;92.67;87.17;;;10.90;99.90;;;;;;5029234;28;20282;-80
2021/12/16 14:53:33;;;;;;;94.47;89.20;;;10.90;99.90;;;;;;5011503;28;20184;-82
2021/12/16 14:56:17;;;;;;;94.50;89.13;;;10.90;99.90;;;;;;5028269;28;20689;-82
2021/12/16 14:58:47;;;;;;;96.73;91.30;;;10.90;99.90;;;;;;5010848;28;20195;-81
2021/12/16 15:01:19;;;;;;;96.77;90.97;;;10.90;99.90;;;;;;5029260;28;20729;-81
2021/12/16 15:03:47;;;;;;;100.23;93.97;;;10.80;99.90;;;;;;5010337;28;20668;-80
2021/12/16 15:06:22;;;;;;;96.90;91.33;;;10.80;99.90;;;;;;5010796;28;20187;-81
2021/12/16 15:11:43;;;;;;;100.03;94.23;;;10.80;99.90;;;;;;5009059;28;20211;-80
2021/12/16 15:14:28;;;;;;;100.33;94.03;;;10.80;99.90;;;;;;5030231;28;20644;-81
2021/12/16 15:17:08;;;;;;;101.13;95.13;;;10.70;99.90;;;;;;5010722;28;20278;-79
2021/12/16 15:39:54;;;;;;;114.33;107.23;;;10.50;99.90;;;;;;5013899;28;20257;-80
2021/12/16 15:45:25;;;;;;;115.30;108.80;;;10.40;99.90;;;;;;5028274;28;20193;-82
2021/12/16 15:48:06;;;;;;;118.90;111.43;;;10.30;99.90;;;;;;5005697;28;20225;-81
2021/12/16 15:50:44;;;;;;;123.40;115.23;;;10.30;99.90;;;;;;5011358;28;20270;-81
2021/12/16 15:53:16;;;;;;;126.27;118.20;;;10.20;99.90;;;;;;5010216;28;20402;-80
2021/12/16 15:55:51;;;;;;;121.50;113.70;;;10.20;99.90;;;;;;5021251;28;20182;-81
2021/12/16 15:58:23;;;;;;;126.57;118.47;;;10.20;99.90;;;;;;5007078;28;20290;-81
2021/12/16 16:00:59;;;;;;;126.30;118.40;;;10.20;99.90;;;;;;5008499;28;20242;-83
2021/12/16 16:03:27;;;;;;;128.90;120.43;;;10.10;99.90;;;;;;5029088;28;20217;-81